Terminal Aerodrome Forecast
Issued by NWS

Home | Current Version | Previous Version | Text Only | Print | Product List | Glossary On
Versions: 1 2 3 4 5 6 7 8 9 10 11 12 13
000
FTUS44 KJAN 241120
TAFGTR
TAF
KGTR 241120Z 2412/2512 14010KT P6SM SCT250
     FM241400 14015G21KT P6SM BKN025
     FM241600 15017G23KT P6SM BKN035
     FM241900 15019G25KT P6SM VCTS BKN040CB
     FM250300 14014G22KT P6SM BKN100
     FM250600 15015G22KT P6SM OVC015=

USA.gov is the U.S. government's official web portal to all federal, state and local government web resources and services.